Aérodrome :
LOGIN :

S'inscrire | Disclaimer

   EN    FR    IT 

 










Légende :    VFR   VFR Marginal   IFR   IFR Intensif   IFR Très Intensif
Visi : 
Plafond : 
>= 8 km
>= 3000ft
5 à 8 km
1000 à 3000 ft
1500m à 5 km
500 à 1000 ft
800 à 1500m
200 à 500 ft
< 800m
< 200 ft
Symboles :   Orages  Brouillard  Fortes neiges  Fortes précipitations  Vent > 20 kt
SIGMETs :   Divers  Orages  Givrage  Turbulence  Onde Orograph.  Cendres Volcan.






- Altitude de l'aérodrome : 1674 ft
- Code IATA : BRN


LSZB - Bern Belp

DERNIER METAR :
  • 102050Z AUTO VRB02KT 9999 BKN140 20/18 Q1017

METARs EXPIRÉS :
  • 102020Z AUTO VRB03KT 9999 FEW130 20/18 Q1017
  • 101950Z AUTO 12005KT 080V180 9999 FEW120 BKN130 20/18 Q1017
  • 101920Z AUTO 11005KT 080V150 9999 FEW085 BKN130 20/18 Q1017 RERA
  • 101850Z AUTO 11006KT 9999 -RA SCT110 BKN120 //////TCU 21/18 Q1016

TAF TAF LSZB
Valide du 10 à 15h jusqu'au 11 à 00h UTC


101425Z 1015/1024 16014KT 9999 SCT045CB
PROB30
TEMPO 1015/1017 17018G28KT TSRA
BECMG 1016/1018 VRB03KT FEW100
PROB40 1017/1021 CAVOK
PROB30
TEMPO 1022/1024 20012G25KT TSRA FEW080CB
ATIS : +41 22 417 40 76



MET'MAP, la Météo Aéronautique d'un coup d'oeil ! - Copyright ORBIFLY Décembre 2007 - Disclaimer

ORBIFLY MET'MAP TEAM :

Programmation & Développement : Alexandra Zaïnal
Sur une idée originale de : Baudouin d'Aumeries
Assistance à la programmation : Marc-Olivier Méhu
Soutien technique & logistique : Manuel Goepfert

Contact : metmap@orbifly.com




SOURCES & CREDITS :

   NOAA